This is the latest recevied weather packets stored in our database for station/object OK1JIL-13. If no packets are shown the sender has not sent any weather packets the latest 10 day(s).
| Time | Temp. | Humidity | Pressure | Rain* | Wind** | Luminosity | Snow |
|---|---|---|---|---|---|---|---|
| 1777445589 | 6.67° C | 36% | 1024.6 hPa | - | - | - | - |
| 1777444389 | 7.78° C | 32% | 1024.6 hPa | - | - | - | - |
| 1777443789 | 10.56° C | 27% | 1024.5 hPa | - | - | - | - |
| 1777443189 | 8.89° C | 28% | 1024.3 hPa | - | - | - | - |
| 1777442589 | 7.78° C | 30% | 1024.2 hPa | - | - | - | - |
| 1777441989 | 7.22° C | 32% | 1024.2 hPa | - | - | - | - |
| 1777441389 | 8.89° C | 28% | 1024.1 hPa | - | - | - | - |
| 1777440789 | 6.67° C | 33% | 1024.1 hPa | - | - | - | - |
| 1777440190 | 8.89° C | 28% | 1023.8 hPa | - | - | - | - |
| 1777439590 | 6.11° C | 32% | 1023.8 hPa | - | - | - | - |
| 1777438990 | 6.11° C | 33% | 1023.8 hPa | - | - | - | - |
| 1777438390 | 7.78° C | 30% | 1023.8 hPa | - | - | - | - |
| 1777437790 | 8.89° C | 29% | 1023.7 hPa | - | - | - | - |
| 1777437190 | 8.33° C | 28% | 1023.7 hPa | - | - | - | - |
| 1777436590 | 7.78° C | 30% | 1023.7 hPa | - | - | - | - |
| 1777435990 | 6.67° C | 31% | 1023.7 hPa | - | - | - | - |
| 1777435390 | 7.22° C | 31% | 1023.7 hPa | - | - | - | - |
| 1777434790 | 5° C | 33% | 1023.7 hPa | - | - | - | - |
| 1777433590 | 4.44° C | 36% | 1023.6 hPa | - | - | - | - |
| 1777432990 | 3.33° C | 38% | 1023.5 hPa | - | - | - | - |
| 1777432390 | 3.33° C | 39% | 1023.6 hPa | - | - | - | - |
| 1777429990 | 3.89° C | 37% | 1023.5 hPa | - | - | - | - |
| 1777428790 | 3.89° C | 34% | 1023.5 hPa | - | - | - | - |
| 1777426390 | 4.44° C | 33% | 1023.4 hPa | - | - | - | - |
| 1777425190 | 5.56° C | 32% | 1023.5 hPa | - | - | - | - |
* Rain since midnight (hover to see other rain measurements)
** Current wind speed in m/s (hover to see current wind gust speed)